createdAt,value
2022-09-21T00:02:15.049Z,8.20
2022-09-21T00:04:51.291Z,8.18
2022-09-21T00:07:27.846Z,8.10
2022-09-21T00:10:05.077Z,8.10
2022-09-21T00:12:41.911Z,8.10
2022-09-21T00:15:20.086Z,8.00
2022-09-21T00:17:59.665Z,8.00
2022-09-21T00:20:35.841Z,8.00
2022-09-21T00:23:12.487Z,7.90
2022-09-21T00:25:48.660Z,7.90
2022-09-21T00:28:25.235Z,7.90
2022-09-21T00:31:07.531Z,7.90
2022-09-21T00:33:44.774Z,7.90
2022-09-21T00:36:25.202Z,7.90
2022-09-21T00:39:04.286Z,7.88
2022-09-21T00:41:40.613Z,7.80
2022-09-21T00:44:33.506Z,7.80
2022-09-21T00:47:17.594Z,7.80
2022-09-21T00:49:59.857Z,7.80
2022-09-21T00:52:42.977Z,7.80
2022-09-21T00:55:27.553Z,7.80
2022-09-21T00:58:11.834Z,7.80
2022-09-21T01:00:48.260Z,7.80
2022-09-21T01:03:24.740Z,7.80
2022-09-21T01:06:01.402Z,7.80
2022-09-21T01:08:38.676Z,7.80
2022-09-21T01:11:45.484Z,7.80
2022-09-21T01:14:54.936Z,7.80
2022-09-21T01:17:47.935Z,7.80
2022-09-21T01:21:09.999Z,7.70
2022-09-21T01:24:23.219Z,7.70
2022-09-21T01:27:39.553Z,7.68
2022-09-21T01:30:19.916Z,7.60
2022-09-21T01:33:07.680Z,7.60
2022-09-21T01:35:52.569Z,7.60
2022-09-21T01:38:37.920Z,7.70
2022-09-21T01:41:19.574Z,7.70
2022-09-21T01:44:08.390Z,7.70
2022-09-21T01:46:47.160Z,7.70
2022-09-21T01:49:31.282Z,7.80
2022-09-21T01:52:17.013Z,7.80
2022-09-21T01:55:01.627Z,7.80
2022-09-21T01:57:47.935Z,7.84
2022-09-21T02:00:25.897Z,7.90
2022-09-21T02:03:12.713Z,7.90
2022-09-21T02:05:49.130Z,7.96
2022-09-21T02:08:27.960Z,8.00
2022-09-21T02:11:06.678Z,8.00
2022-09-21T02:13:46.857Z,8.00
2022-09-21T02:16:41.183Z,8.10
2022-09-21T02:19:29.646Z,8.10
2022-09-21T02:22:14.800Z,8.10
2022-09-21T02:24:57.305Z,8.18
2022-09-21T02:27:46.359Z,8.20
2022-09-21T02:30:26.149Z,8.20
2022-09-21T02:33:13.147Z,8.20
2022-09-21T02:36:02.167Z,8.20
2022-09-21T02:38:47.161Z,8.30
2022-09-21T02:41:31.533Z,8.30
2022-09-21T02:44:18.997Z,8.30
2022-09-21T02:47:04.365Z,8.30
2022-09-21T02:49:47.216Z,8.30
2022-09-21T02:52:26.446Z,8.30
2022-09-21T02:55:05.355Z,8.30
2022-09-21T02:57:44.014Z,8.34
2022-09-21T03:00:22.573Z,8.40
2022-09-21T03:02:58.795Z,8.40
2022-09-21T03:05:35.367Z,8.40
2022-09-21T03:08:11.863Z,8.40
2022-09-21T03:10:50.845Z,8.40
2022-09-21T03:13:27.670Z,8.40
2022-09-21T03:16:09.142Z,8.40
2022-09-21T03:18:45.841Z,8.40
2022-09-21T03:21:22.144Z,8.40
2022-09-21T03:23:58.605Z,8.40
2022-09-21T03:26:35.759Z,8.40
2022-09-21T03:29:12.621Z,8.40
2022-09-21T03:31:48.753Z,8.40
2022-09-21T03:34:24.930Z,8.44
2022-09-21T03:37:01.415Z,8.50
2022-09-21T03:39:37.967Z,8.46
2022-09-21T03:42:14.553Z,8.50
2022-09-21T03:44:50.710Z,8.50
2022-09-21T03:47:26.873Z,8.50
2022-09-21T03:50:05.604Z,8.50
2022-09-21T03:52:45.641Z,8.50
2022-09-21T03:55:22.733Z,8.50
2022-09-21T03:57:58.945Z,8.50
2022-09-21T04:00:35.932Z,8.50
2022-09-21T04:03:12.127Z,8.50
2022-09-21T04:05:48.244Z,8.50
2022-09-21T04:08:24.400Z,8.50
2022-09-21T04:11:00.920Z,8.50
2022-09-21T04:13:37.081Z,8.50
2022-09-21T04:16:13.975Z,8.50
2022-09-21T04:18:50.422Z,8.50
2022-09-21T04:21:27.316Z,8.50
2022-09-21T04:24:04.359Z,8.50
2022-09-21T04:26:41.219Z,8.50
2022-09-21T04:29:18.095Z,8.50
2022-09-21T04:31:55.116Z,8.52
2022-09-21T04:34:31.760Z,8.60
2022-09-21T04:37:08.895Z,8.60
2022-09-21T04:39:45.347Z,8.60
2022-09-21T04:42:21.762Z,8.60
2022-09-21T04:44:59.104Z,8.60
2022-09-21T04:47:36.742Z,8.70
2022-09-21T04:50:14.749Z,8.70
2022-09-21T04:52:50.876Z,8.70
2022-09-21T04:55:27.104Z,8.70
2022-09-21T04:58:03.395Z,8.80
2022-09-21T05:00:39.527Z,8.80
2022-09-21T05:03:15.750Z,8.80
2022-09-21T05:05:56.899Z,8.90
2022-09-21T05:08:50.751Z,8.90
2022-09-21T05:11:27.427Z,8.90
2022-09-21T05:14:03.832Z,9.00
2022-09-21T05:16:40.732Z,9.00
2022-09-21T05:19:16.857Z,9.00
2022-09-21T05:21:52.980Z,9.10
2022-09-21T05:24:29.156Z,9.10
2022-09-21T05:27:05.688Z,9.20
2022-09-21T05:29:44.727Z,9.20
2022-09-21T05:32:30.143Z,9.20
2022-09-21T05:35:18.978Z,9.28
2022-09-21T05:38:05.802Z,9.30
2022-09-21T05:40:43.561Z,9.30
2022-09-21T05:43:21.563Z,9.30
2022-09-21T05:46:12.993Z,9.32
2022-09-21T05:49:00.201Z,9.40
2022-09-21T05:51:51.662Z,9.40
2022-09-21T05:54:43.875Z,9.48
2022-09-21T05:57:31.183Z,9.50
2022-09-21T06:00:20.640Z,9.50
2022-09-21T06:03:28.914Z,9.60
2022-09-21T06:06:05.641Z,9.70
2022-09-21T06:08:41.784Z,9.80
2022-09-21T06:11:19.718Z,9.90
2022-09-21T06:13:56.111Z,9.90
2022-09-21T06:16:39.997Z,10.00
2022-09-21T06:19:19.080Z,10.10
2022-09-21T06:21:55.215Z,10.10
2022-09-21T06:24:31.403Z,10.20
2022-09-21T06:27:08.015Z,10.30
2022-09-21T06:29:44.244Z,10.30
2022-09-21T06:32:21.582Z,10.40
2022-09-21T06:34:57.888Z,10.40
2022-09-21T06:37:34.048Z,10.50
2022-09-21T06:40:13.097Z,10.50
2022-09-21T06:42:49.345Z,10.52
2022-09-21T06:45:26.121Z,10.60
2022-09-21T06:48:03.170Z,10.66
2022-09-21T06:50:39.527Z,10.70
2022-09-21T06:53:16.435Z,10.72
2022-09-21T06:55:56.126Z,10.80
2022-09-21T06:58:36.325Z,10.80
2022-09-21T07:01:16.966Z,10.80
2022-09-21T07:03:56.439Z,10.90
2022-09-21T07:06:33.584Z,10.94
2022-09-21T07:12:11.599Z,11.00
2022-09-21T07:14:49.390Z,11.10
2022-09-21T07:17:26.313Z,11.10
2022-09-21T07:20:03.394Z,11.10
2022-09-21T07:22:39.884Z,11.20
2022-09-21T07:25:17.189Z,11.22
2022-09-21T07:27:53.762Z,11.30
2022-09-21T07:30:30.090Z,11.40
2022-09-21T07:33:07.084Z,11.50
2022-09-21T07:35:51.311Z,11.50
2022-09-21T07:38:28.093Z,11.50
2022-09-21T07:41:05.789Z,11.50
2022-09-21T07:43:42.453Z,11.50
2022-09-21T07:46:20.678Z,11.50
2022-09-21T07:48:59.881Z,11.50
2022-09-21T07:51:36.699Z,11.60
2022-09-21T07:54:15.232Z,11.76
2022-09-21T07:57:05.264Z,11.90
2022-09-21T07:59:41.683Z,12.00
2022-09-21T08:02:18.105Z,12.10
2022-09-21T08:04:54.909Z,12.20
2022-09-21T08:07:32.621Z,12.36
2022-09-21T08:10:11.122Z,12.44
2022-09-21T08:12:47.488Z,12.50
2022-09-21T08:15:46.947Z,12.54
2022-09-21T08:18:20.093Z,12.60
2022-09-21T08:21:01.988Z,12.70
2022-09-21T08:23:40.649Z,12.80
2022-09-21T08:26:19.890Z,12.80
2022-09-21T08:28:58.928Z,12.90
2022-09-21T08:31:35.382Z,12.88
2022-09-21T08:34:12.014Z,12.80
2022-09-21T08:36:53.022Z,12.80
2022-09-21T08:39:31.384Z,12.80
2022-09-21T08:42:50.686Z,12.80
2022-09-21T08:45:37.478Z,12.90
2022-09-21T08:48:28.311Z,12.82
2022-09-21T08:51:14.009Z,12.70
2022-09-21T08:53:57.817Z,12.70
2022-09-21T08:57:00.594Z,12.60
2022-09-21T08:59:31.467Z,12.60
2022-09-21T09:02:36.110Z,12.60
2022-09-21T09:05:38.561Z,12.50
2022-09-21T09:08:46.253Z,12.50
2022-09-21T09:11:43.524Z,12.50
2022-09-21T09:14:55.375Z,12.40
2022-09-21T09:17:55.491Z,12.40
2022-09-21T09:20:39.354Z,12.50
2022-09-21T09:23:25.718Z,12.70
2022-09-21T09:26:12.000Z,12.88
2022-09-21T09:28:56.754Z,13.00
2022-09-21T09:31:37.821Z,13.20
2022-09-21T09:34:22.939Z,13.30
2022-09-21T09:37:10.859Z,13.46
2022-09-21T09:39:54.833Z,13.48
2022-09-21T09:42:59.242Z,13.50
2022-09-21T09:45:59.025Z,13.48
2022-09-21T09:48:58.087Z,13.50
2022-09-21T09:51:40.005Z,13.50
2022-09-21T09:54:23.067Z,13.50
2022-09-21T09:56:59.529Z,13.50
2022-09-21T09:59:44.537Z,13.54
2022-09-21T10:02:29.936Z,13.60
2022-09-21T10:05:20.835Z,13.70
2022-09-21T10:07:57.322Z,13.60
2022-09-21T10:10:43.440Z,13.60
2022-09-21T10:13:29.844Z,13.60
2022-09-21T10:16:13.336Z,13.60
2022-09-21T10:18:59.019Z,13.50
2022-09-21T10:21:44.507Z,13.30
2022-09-21T10:24:33.578Z,13.14
2022-09-21T10:27:20.712Z,13.08
2022-09-21T10:29:57.689Z,13.10
2022-09-21T10:32:35.266Z,13.18
2022-09-21T10:35:22.893Z,13.20
2022-09-21T10:38:22.672Z,13.20
2022-09-21T10:41:00.332Z,13.28
2022-09-21T10:43:45.325Z,13.32
2022-09-21T10:46:36.550Z,13.40
2022-09-21T10:49:24.190Z,13.40
2022-09-21T10:52:05.443Z,13.40
2022-09-21T10:54:44.951Z,13.28
2022-09-21T10:57:25.887Z,13.10
2022-09-21T11:00:29.498Z,13.00
2022-09-21T11:03:31.968Z,12.90
2022-09-21T11:06:16.013Z,12.80
2022-09-21T11:09:04.347Z,12.70
2022-09-21T11:11:54.978Z,12.60
2022-09-21T11:14:54.653Z,12.50
2022-09-21T11:17:44.687Z,12.50
2022-09-21T11:20:38.190Z,12.50
2022-09-21T11:23:35.055Z,12.50
2022-09-21T11:26:25.118Z,12.70
2022-09-21T11:29:10.842Z,12.92
2022-09-21T11:32:26.405Z,13.30
2022-09-21T11:35:31.303Z,13.66
2022-09-21T11:38:36.790Z,13.80
2022-09-21T11:41:55.148Z,14.00
2022-09-21T11:44:56.085Z,14.14
2022-09-21T11:48:06.936Z,14.30
2022-09-21T11:51:16.963Z,14.50
2022-09-21T11:54:46.706Z,14.80
2022-09-21T11:57:32.653Z,14.86
2022-09-21T12:00:23.128Z,14.80
2022-09-21T12:03:52.148Z,14.80
2022-09-21T12:06:51.844Z,14.90
2022-09-21T12:10:20.231Z,15.00
2022-09-21T12:13:07.902Z,15.16
2022-09-21T12:15:56.284Z,15.10
2022-09-21T12:18:45.475Z,15.00
2022-09-21T12:21:29.074Z,14.86
2022-09-21T12:24:16.310Z,14.80
2022-09-21T12:26:58.457Z,14.90
2022-09-21T12:29:47.512Z,14.90
2022-09-21T12:32:37.685Z,14.90
2022-09-21T12:35:22.474Z,14.80
2022-09-21T12:38:10.477Z,14.80
2022-09-21T12:40:54.321Z,14.70
2022-09-21T12:43:41.982Z,14.60
2022-09-21T12:46:25.356Z,14.50
2022-09-21T12:49:11.925Z,14.50
2022-09-21T12:51:58.761Z,14.50
2022-09-21T12:54:46.943Z,14.50
2022-09-21T12:58:04.805Z,14.70
2022-09-21T13:01:01.391Z,14.80
2022-09-21T13:03:52.870Z,14.90
2022-09-21T13:07:19.368Z,14.90
2022-09-21T13:09:56.394Z,14.82
2022-09-21T13:12:44.350Z,14.80
2022-09-21T13:15:28.228Z,14.80
2022-09-21T13:18:21.987Z,14.80
2022-09-21T13:21:01.364Z,14.80
2022-09-21T13:23:43.005Z,14.80
2022-09-21T13:26:33.976Z,14.80
2022-09-21T13:29:34.323Z,14.84
2022-09-21T13:32:47.517Z,14.80
2022-09-21T13:36:30.182Z,14.70
2022-09-21T13:39:26.107Z,14.50
2022-09-21T13:42:41.773Z,14.22
2022-09-21T13:45:58.455Z,13.86
2022-09-21T13:48:36.147Z,13.52
2022-09-21T13:51:19.332Z,13.32
2022-09-21T13:54:02.205Z,13.20
2022-09-21T13:56:38.719Z,13.10
2022-09-21T13:59:27.986Z,13.00
2022-09-21T14:02:09.955Z,13.00
2022-09-21T14:04:52.802Z,13.00
2022-09-21T14:07:34.693Z,13.00
2022-09-21T14:10:11.479Z,13.10
2022-09-21T14:12:48.781Z,13.10
2022-09-21T14:15:45.128Z,13.20
2022-09-21T14:18:46.566Z,13.30
2022-09-21T14:21:24.631Z,13.40
2022-09-21T14:24:41.895Z,13.50
2022-09-21T14:27:27.815Z,13.60
2022-09-21T14:30:17.476Z,13.60
2022-09-21T14:33:12.077Z,13.50
2022-09-21T14:35:50.098Z,13.40
2022-09-21T14:38:36.886Z,13.36
2022-09-21T14:41:18.225Z,13.36
2022-09-21T14:43:58.676Z,13.40
2022-09-21T14:47:12.831Z,13.40
2022-09-21T14:50:24.001Z,13.44
2022-09-21T14:53:40.382Z,13.50
2022-09-21T14:56:56.685Z,13.60
2022-09-21T15:00:21.169Z,13.60
2022-09-21T15:03:32.905Z,13.60
2022-09-21T15:06:45.597Z,13.50
2022-09-21T15:10:15.311Z,13.38
2022-09-21T15:13:09.351Z,13.20
2022-09-21T15:16:07.266Z,13.20
2022-09-21T15:18:51.700Z,13.10
2022-09-21T15:21:33.088Z,13.10
2022-09-21T15:24:32.024Z,13.02
2022-09-21T15:27:18.341Z,13.00
2022-09-21T15:29:58.567Z,13.00
2022-09-21T15:32:43.024Z,13.00
2022-09-21T15:35:28.689Z,12.90
2022-09-21T15:38:05.797Z,12.82
2022-09-21T15:40:53.163Z,12.80
2022-09-21T15:43:30.249Z,12.78
2022-09-21T15:46:12.238Z,12.70
2022-09-21T15:48:51.172Z,12.70
2022-09-21T15:51:39.922Z,12.70
2022-09-21T15:54:32.376Z,12.70
2022-09-21T15:57:31.020Z,12.70
2022-09-21T16:00:21.598Z,12.70
2022-09-21T16:03:20.536Z,12.60
2022-09-21T16:06:02.531Z,12.50
2022-09-21T16:08:40.683Z,12.48
2022-09-21T16:11:38.364Z,12.36
2022-09-21T16:14:36.833Z,12.20
2022-09-21T16:17:36.139Z,12.10
2022-09-21T16:20:24.160Z,12.00
2022-09-21T16:23:19.590Z,11.88
2022-09-21T16:26:02.860Z,11.70
2022-09-21T16:28:44.691Z,11.60
2022-09-21T16:31:37.514Z,11.50
2022-09-21T16:34:37.449Z,11.30
2022-09-21T16:37:31.703Z,11.20
2022-09-21T16:40:09.949Z,11.10
2022-09-21T16:42:46.686Z,11.06
2022-09-21T16:45:31.440Z,11.00
2022-09-21T16:48:10.616Z,10.90
2022-09-21T16:50:47.566Z,10.90
2022-09-21T16:53:23.938Z,10.80
2022-09-21T16:56:00.110Z,10.80
2022-09-21T16:58:36.382Z,10.70
2022-09-21T17:01:18.801Z,10.70
2022-09-21T17:03:55.211Z,10.62
2022-09-21T17:06:31.477Z,10.60
2022-09-21T17:09:21.069Z,10.50
2022-09-21T17:12:00.341Z,10.50
2022-09-21T17:14:42.937Z,10.40
2022-09-21T17:17:25.768Z,10.38
2022-09-21T17:20:14.412Z,10.30
2022-09-21T17:22:51.025Z,10.30
2022-09-21T17:25:28.236Z,10.20
2022-09-21T17:28:13.541Z,10.20
2022-09-21T17:30:50.169Z,10.10
2022-09-21T17:33:26.860Z,10.10
2022-09-21T17:36:07.918Z,10.10
2022-09-21T17:38:45.268Z,10.10
2022-09-21T17:41:35.968Z,10.00
2022-09-21T17:44:22.223Z,10.00
2022-09-21T17:47:10.248Z,10.00
2022-09-21T17:49:48.494Z,10.00
2022-09-21T17:52:44.967Z,10.00
2022-09-21T17:55:24.064Z,10.00
2022-09-21T17:58:37.685Z,10.00
2022-09-21T18:01:31.172Z,10.00
2022-09-21T18:04:11.571Z,10.00
2022-09-21T18:06:50.447Z,10.00
2022-09-21T18:09:28.673Z,10.00
2022-09-21T18:13:01.264Z,9.92
2022-09-21T18:15:48.017Z,9.94
2022-09-21T18:18:45.551Z,9.90
2022-09-21T18:21:27.707Z,9.90
2022-09-21T18:24:30.958Z,9.94
2022-09-21T18:27:11.030Z,10.00
2022-09-21T18:29:49.809Z,9.96
2022-09-21T18:32:59.143Z,9.98
2022-09-21T18:35:57.359Z,9.94
2022-09-21T18:38:47.021Z,9.90
2022-09-21T18:41:43.096Z,9.90
2022-09-21T18:44:34.447Z,9.92
2022-09-21T18:47:23.514Z,9.94
2022-09-21T18:50:19.612Z,9.92
2022-09-21T18:53:11.695Z,9.90
2022-09-21T18:55:50.294Z,9.90
2022-09-21T18:58:32.058Z,9.90
2022-09-21T19:01:19.912Z,9.90
2022-09-21T19:03:59.042Z,9.90
2022-09-21T19:06:53.172Z,9.88
2022-09-21T19:09:58.103Z,9.80
2022-09-21T19:12:56.681Z,9.80
2022-09-21T19:16:00.314Z,9.80
2022-09-21T19:18:49.292Z,9.80
2022-09-21T19:21:49.105Z,9.80
2022-09-21T19:24:38.986Z,9.80
2022-09-21T19:27:32.224Z,9.80
2022-09-21T19:30:20.288Z,9.80
2022-09-21T19:33:03.008Z,9.80
2022-09-21T19:35:39.165Z,9.80
2022-09-21T19:38:16.421Z,9.80
2022-09-21T19:41:26.182Z,9.80
2022-09-21T19:44:19.902Z,9.80
2022-09-21T19:47:10.295Z,9.80
2022-09-21T19:49:55.207Z,9.80
2022-09-21T19:52:38.736Z,9.80
2022-09-21T19:55:41.966Z,9.80
2022-09-21T19:58:37.880Z,9.80
2022-09-21T20:01:18.201Z,9.80
2022-09-21T20:03:55.030Z,9.80
2022-09-21T20:06:44.190Z,9.80
2022-09-21T20:09:29.720Z,9.80
2022-09-21T20:12:19.915Z,9.80
2022-09-21T20:15:08.539Z,9.80
2022-09-21T20:17:54.756Z,9.80
2022-09-21T20:20:33.733Z,9.80
2022-09-21T20:23:14.869Z,9.80
2022-09-21T20:26:03.442Z,9.80
2022-09-21T20:28:43.330Z,9.80
2022-09-21T20:31:21.142Z,9.80
2022-09-21T20:33:57.625Z,9.80
2022-09-21T20:36:35.523Z,9.82
2022-09-21T20:39:11.967Z,9.90
2022-09-21T20:41:48.903Z,9.90
2022-09-21T20:44:25.230Z,9.90
2022-09-21T20:47:01.415Z,9.90
2022-09-21T20:49:37.858Z,9.86
2022-09-21T20:52:16.092Z,9.80
2022-09-21T20:54:52.583Z,9.80
2022-09-21T20:57:29.032Z,9.80
2022-09-21T21:00:07.592Z,9.80
2022-09-21T21:02:45.008Z,9.80
2022-09-21T21:05:22.329Z,9.80
2022-09-21T21:07:58.836Z,9.74
2022-09-21T21:10:37.208Z,9.70
2022-09-21T21:13:13.343Z,9.70
2022-09-21T21:15:55.340Z,9.70
2022-09-21T21:18:31.956Z,9.70
2022-09-21T21:21:09.110Z,9.70
2022-09-21T21:24:06.860Z,9.70
2022-09-21T21:27:01.292Z,9.70
2022-09-21T21:29:39.529Z,9.70
2022-09-21T21:32:16.869Z,9.70
2022-09-21T21:34:53.909Z,9.68
2022-09-21T21:37:31.897Z,9.66
2022-09-21T21:40:11.896Z,9.60
2022-09-21T21:42:48.220Z,9.60
2022-09-21T21:45:24.405Z,9.60
2022-09-21T21:48:02.482Z,9.56
2022-09-21T21:50:39.361Z,9.50
2022-09-21T21:53:15.663Z,9.50
2022-09-21T21:55:51.993Z,9.50
2022-09-21T21:58:28.460Z,9.50
2022-09-21T22:01:19.426Z,9.50
2022-09-21T22:04:00.852Z,9.50
2022-09-21T22:06:40.274Z,9.50
2022-09-21T22:09:18.572Z,9.40
2022-09-21T22:11:55.155Z,9.40
2022-09-21T22:14:31.982Z,9.40
2022-09-21T22:17:08.318Z,9.40
2022-09-21T22:19:45.328Z,9.40
2022-09-21T22:22:21.417Z,9.40
2022-09-21T22:24:57.928Z,9.40
2022-09-21T22:27:34.080Z,9.40
2022-09-21T22:30:13.342Z,9.40
2022-09-21T22:32:50.715Z,9.40
2022-09-21T22:35:27.106Z,9.40
2022-09-21T22:38:03.286Z,9.40
2022-09-21T22:40:39.585Z,9.40
2022-09-21T22:43:16.821Z,9.40
2022-09-21T22:45:54.772Z,9.40
2022-09-21T22:48:31.713Z,9.30
2022-09-21T22:51:09.057Z,9.30
2022-09-21T22:53:45.422Z,9.20
2022-09-21T22:56:24.796Z,9.20
2022-09-21T22:59:05.103Z,9.20
2022-09-21T23:01:43.064Z,9.10
2022-09-21T23:04:19.852Z,9.10
2022-09-21T23:06:56.068Z,9.00
2022-09-21T23:09:32.213Z,9.00
2022-09-21T23:12:09.404Z,8.90
2022-09-21T23:14:45.860Z,8.80
2022-09-21T23:17:22.125Z,8.80
2022-09-21T23:19:58.296Z,8.70
2022-09-21T23:22:34.955Z,8.62
2022-09-21T23:25:12.524Z,8.60
2022-09-21T23:27:48.702Z,8.50
2022-09-21T23:30:25.108Z,8.40
2022-09-21T23:33:01.519Z,8.40
2022-09-21T23:35:42.221Z,8.30
2022-09-21T23:38:18.440Z,8.30
2022-09-21T23:40:55.910Z,8.20
2022-09-21T23:43:32.262Z,8.20
2022-09-21T23:46:10.416Z,8.10
2022-09-21T23:48:47.721Z,8.10
2022-09-21T23:51:24.697Z,8.00
2022-09-21T23:54:02.150Z,8.00
2022-09-21T23:56:38.827Z,7.92
2022-09-21T23:59:15.211Z,7.90
